^^
Grace C. Lehan Memorial Weather Station Historical Data
Daily Summary for August 13, 2021 Units:  English    Metric   Both
Daily Weekly Monthly Yearly
  High: Low: Average:
Temperature: 39.8 °F 27.6 °F 35.5 °F
Dew Point: 29.7 °F 24.4 °F 27.8 °F
Humidity: 90% 63.4% 73%
Wind Speed: 2.1mph 0mph 0.1mph
Wind Gust: 9mph - -
Wind- - SW
Pressure: 30.06 in 29.86 in -
Precipitation: 0.00 in    
 
 
Tabular Data for August 13, 2021
Time Temperature Dew Point Pressure Wind Wind Speed Wind Gust Humidity Rainfall Rate (Hourly) solar
00:04 34.6 °F 26.9 °F 30.05 in Calm     73% 0.00 in 0 W/m2
00:09 34.6 °F 26.9 °F 30.05 in Calm     73% 0.00 in 0 W/m2
00:14 34.6 °F 26.8 °F 30.05 in Calm     73% 0.00 in 0 W/m2
00:19 34.5 °F 26.8 °F 30.05 in Calm     73.1% 0.00 in 0 W/m2
00:24 34.5 °F 27.1 °F 30.04 in Calm     74% 0.00 in 0 W/m2
00:29 34.4 °F 27 °F 30.04 in Calm     74% 0.00 in 0 W/m2
00:34 34.4 °F 27 °F 30.04 in Calm     74% 0.00 in 0 W/m2
00:39 34.4 °F 27 °F 30.04 in Calm     74% 0.00 in 0 W/m2
00:44 34.4 °F 27 °F 30.04 in Calm     74% 0.00 in 0 W/m2
00:49 34.4 °F 27 °F 30.05 in Calm     74% 0.00 in 0 W/m2
00:54 34.3 °F 27 °F 30.04 in Calm     74.1% 0.00 in 0 W/m2
00:59 34.3 °F 27.2 °F 30.04 in Calm     75% 0.00 in 0 W/m2
01:04 34.3 °F 27.2 °F 30.04 in Calm     75% 0.00 in 0 W/m2
01:09 34.3 °F 27.2 °F 30.04 in Calm     75% 0.00 in 0 W/m2
01:14 34.2 °F 27.2 °F 30.04 in Calm     75% 0.00 in 0 W/m2
01:19 34.2 °F 27.4 °F 30.04 in Calm     75.9% 0.00 in 0 W/m2
01:24 34.1 °F 27.4 °F 30.04 in Calm     76% 0.00 in 0 W/m2
01:29 34.1 °F 27.3 °F 30.04 in Calm     76% 0.00 in 0 W/m2
01:34 34 °F 27.2 °F 30.04 in Calm     76% 0.00 in 0 W/m2
01:39 33.9 °F 27.2 °F 30.03 in Calm     76% 0.00 in 0 W/m2
01:44 33.9 °F 27.2 °F 30.03 in Calm     76% 0.00 in 0 W/m2
01:49 33.9 °F 27.2 °F 30.04 in Calm     76% 0.00 in 0 W/m2
01:54 33.9 °F 26.9 °F 30.04 in Calm     75.3% 0.00 in 0 W/m2
01:59 33.8 °F 26.8 °F 30.04 in Calm     75% 0.00 in 0 W/m2
02:04 33.8 °F 27.3 °F 30.05 in Calm     76.7% 0.00 in 0 W/m2
02:09 33.7 °F 26.6 °F 30.05 in Calm     75% 0.00 in 0 W/m2
02:14 33.6 °F 26.5 °F 30.04 in Calm     75% 0.00 in 0 W/m2
02:19 33.5 °F 26.5 °F 30.04 in Calm     75.3% 0.00 in 0 W/m2
02:24 33.4 °F 26.7 °F 30.04 in Calm     76% 0.00 in 0 W/m2
02:29 33.3 °F 26.6 °F 30.04 in Calm     76% 0.00 in 0 W/m2
02:34 33.3 °F 26.5 °F 30.04 in Calm     76% 0.00 in 0 W/m2
02:39 33.2 °F 26.4 °F 30.04 in Calm     76% 0.00 in 0 W/m2
02:44 33 °F 26.3 °F 30.04 in Calm     76% 0.00 in 0 W/m2
02:49 32.9 °F 26.4 °F 30.03 in Calm     76.7% 0.00 in 0 W/m2
02:54 32.8 °F 26.4 °F 30.03 in Calm     77% 0.00 in 0 W/m2
02:59 32.6 °F 26.2 °F 30.03 in NNW 0.1 mph 2 mph 77% 0.00 in 0 W/m2
03:00 32.5 °F 26.1 °F 30.03 in Calm   2 mph 77% 0.00 in 0 W/m2
03:30 31.6 °F 26.2 °F 30.02 in Calm     80% 0.00 in 0 W/m2
04:04 31.6 °F 26.4 °F 30.02 in Calm     80.9% 0.00 in 0 W/m2
04:09 31.6 °F 26.5 °F 30.02 in Calm     81% 0.00 in 0 W/m2
04:14 31.6 °F 26.5 °F 30.02 in Calm     81% 0.00 in 0 W/m2
04:19 31.6 °F 26.4 °F 30.02 in Calm     80.8% 0.00 in 0 W/m2
04:24 31.5 °F 26.3 °F 30.03 in Calm     80.6% 0.00 in 0 W/m2
04:29 31.4 °F 26.1 °F 30.03 in NNW 0.5 mph 3 mph 80.3% 0.00 in 0 W/m2
04:34 31.2 °F 25.8 °F 30.03 in Calm   3 mph 80.2% 0.00 in 0 W/m2
04:39 30.9 °F 25.8 °F 30.03 in Calm     80.8% 0.00 in 0 W/m2
04:44 30.8 °F 25.7 °F 30.03 in Calm     81.2% 0.00 in 0 W/m2
04:49 30.7 °F 25.8 °F 30.03 in Calm     82% 0.00 in 0 W/m2
04:54 30.6 °F 25.8 °F 30.03 in Calm     82% 0.00 in 0 W/m2
04:59 30.6 °F 25.8 °F 30.04 in Calm     82% 0.00 in 0 W/m2
05:04 30.6 °F 25.8 °F 30.04 in Calm     82% 0.00 in 0 W/m2
05:09 30.5 °F 25.8 °F 30.04 in Calm     82.2% 0.00 in 0 W/m2
05:14 30.5 °F 26 °F 30.04 in Calm     83% 0.00 in 0 W/m2
05:19 30.5 °F 26 °F 30.04 in Calm   1 mph 83% 0.00 in 0 W/m2
05:24 30.3 °F 25.5 °F 30.04 in Calm   1 mph 82% 0.00 in 0 W/m2
05:29 30.1 °F 25.3 °F 30.04 in Calm   1 mph 82.1% 0.00 in 0 W/m2
05:34 29.9 °F 25.3 °F 30.04 in Calm   1 mph 82.7% 0.00 in 0 W/m2
05:39 29.7 °F 25.1 °F 30.05 in Calm     83% 0.00 in 0 W/m2
05:44 29.5 °F 25 °F 30.05 in Calm     83.2% 0.00 in 0 W/m2
05:49 29.3 °F 25.1 °F 30.05 in Calm     84% 0.00 in 0 W/m2
05:54 29.3 °F 25.2 °F 30.04 in Calm     84.5% 0.00 in 0 W/m2
05:59 29.2 °F 25.2 °F 30.04 in Calm     85% 0.00 in 0 W/m2
06:04 29.1 °F 25.1 °F 30.04 in Calm     85% 0.00 in 0 W/m2
06:09 28.9 °F 25 °F 30.04 in Calm     85% 0.00 in 0 W/m2
06:14 28.8 °F 25.5 °F 30.04 in Calm     87.4% 0.00 in 0 W/m2
06:19 28.7 °F 25 °F 30.05 in Calm     86% 0.00 in 0 W/m2
06:24 28.6 °F 24.9 °F 30.04 in Calm     86% 0.00 in 0 W/m2
06:29 28.5 °F 24.9 °F 30.05 in Calm     86% 0.00 in 0 W/m2
06:33 28.4 °F 24.8 °F 30.04 in Calm     86% 0.00 in 0 W/m2
06:39 28.4 °F 25 °F 30.04 in Calm     86.9% 0.00 in 0 W/m2
06:44 28.4 °F 25 °F 30.04 in Calm     87% 0.00 in 0 W/m2
06:49 28.3 °F 24.9 °F 30.04 in Calm     87% 0.00 in 0 W/m2
06:54 28.2 °F 24.8 °F 30.04 in Calm     87% 0.00 in 0 W/m2
06:59 28 °F 24.7 °F 30.04 in Calm     87% 0.00 in 0 W/m2
07:04 27.9 °F 24.6 °F 30.04 in Calm     87% 0.00 in 0 W/m2
07:09 27.9 °F 24.5 °F 30.04 in Calm     87% 0.00 in 0 W/m2
07:14 27.9 °F 24.5 °F 30.05 in Calm     87% 0.00 in 0 W/m2
07:19 27.8 °F 24.4 °F 30.05 in Calm     87% 0.00 in 5 W/m2
07:24 27.7 °F 24.4 °F 30.05 in Calm     87% 0.00 in 9 W/m2
07:29 27.7 °F 24.6 °F 30.05 in Calm     88% 0.00 in 12 W/m2
07:34 27.6 °F 24.6 °F 30.05 in Calm     88% 0.00 in 14 W/m2
07:39 27.7 °F 24.6 °F 30.05 in Calm     88% 0.00 in 19 W/m2
07:44 27.8 °F 24.7 °F 30.05 in Calm     88% 0.00 in 25 W/m2
07:49 27.9 °F 24.9 °F 30.05 in Calm     88.1% 0.00 in 37 W/m2
07:54 28.1 °F 25.3 °F 30.05 in Calm     89% 0.00 in 46 W/m2
07:59 28.4 °F 25.6 °F 30.05 in Calm     89% 0.00 in 47 W/m2
08:09 29.5 °F 27 °F 30.04 in Calm     90% 0.00 in 90 W/m2
08:14 30.2 °F 27.4 °F 30.04 in Calm     89.2% 0.00 in 81 W/m2
08:19 30.8 °F 27.7 °F 30.04 in Calm     88.2% 0.00 in 121 W/m2
08:24 31.4 °F 28 °F 30.04 in Calm     87.3% 0.00 in 176 W/m2
08:29 32 °F 28.3 °F 30.04 in Calm     86% 0.00 in 176 W/m2
08:34 32.7 °F 28.7 °F 30.04 in Calm     84.9% 0.00 in 125 W/m2
08:39 33.3 °F 28.9 °F 30.04 in Calm     83.5% 0.00 in 76 W/m2
08:44 33.8 °F 28.8 °F 30.05 in Calm     81.9% 0.00 in 118 W/m2
08:49 34.2 °F 28.8 °F 30.05 in Calm     80.3% 0.00 in 132 W/m2
08:54 34.6 °F 28.9 °F 30.05 in Calm     79.6% 0.00 in 165 W/m2
08:59 35.1 °F 29.2 °F 30.05 in Calm     79% 0.00 in 162 W/m2
09:04 35.6 °F 29.4 °F 30.06 in Calm     77.7% 0.00 in 81 W/m2
09:09 36 °F 29.3 °F 30.05 in Calm     76.3% 0.00 in 132 W/m2
09:14 36.3 °F 29.5 °F 30.05 in Calm     76% 0.00 in 149 W/m2
09:19 36.6 °F 29.7 °F 30.05 in Calm     75.8% 0.00 in 139 W/m2
09:24 37 °F 29.7 °F 30.05 in Calm     74.7% 0.00 in 209 W/m2
09:29 37.3 °F 29.7 °F 30.05 in Calm     73.6% 0.00 in 209 W/m2
09:34 37.6 °F 29.3 °F 30.06 in Calm     71.6% 0.00 in 60 W/m2
09:39 37.9 °F 29.6 °F 30.05 in Calm     71.7% 0.00 in 76 W/m2
09:44 38.2 °F 29.5 °F 30.05 in Calm     70.6% 0.00 in 127 W/m2
09:49 38.5 °F 29.5 °F 30.04 in Calm     70% 0.00 in 123 W/m2
09:54 38.7 °F 29.3 °F 30.04 in Calm     68.7% 0.00 in 86 W/m2
09:59 38.7 °F 28.8 °F 30.04 in NNW 0.1 mph 2 mph 67.4% 0.00 in 121 W/m2
10:04 38.6 °F 28.9 °F 30.04 in Calm   2 mph 67.8% 0.00 in 109 W/m2
10:09 38.6 °F 29 °F 30.04 in Calm   1 mph 68% 0.00 in 105 W/m2
10:14 38.6 °F 29 °F 30.03 in NE 0.6 mph 3 mph 68% 0.00 in 218 W/m2
10:19 38.5 °F 28.9 °F 30.03 in Calm   3 mph 68% 0.00 in 271 W/m2
10:24 38.6 °F 29 °F 30.03 in Calm   3 mph 68% 0.00 in 243 W/m2
10:29 39 °F 29.3 °F 30.02 in Calm   3 mph 67.8% 0.00 in 178 W/m2
10:34 39.3 °F 29.3 °F 30.02 in Calm   3 mph 67% 0.00 in 179 W/m2
10:39 39.6 °F 29.5 °F 30.02 in Calm     67% 0.00 in 232 W/m2
10:44 39.8 °F 29.3 °F 30.02 in Calm     65.9% 0.00 in 232 W/m2
10:49 39.7 °F 29 °F 30.02 in Calm     65.2% 0.00 in 178 W/m2
10:54 39.5 °F 28.8 °F 30.01 in Calm     65% 0.00 in 176 W/m2
10:59 39.3 °F 28.6 °F 30.01 in Calm   1 mph 65% 0.00 in 192 W/m2
11:04 39.2 °F 28.7 °F 30.01 in Calm   1 mph 65.8% 0.00 in 165 W/m2
11:09 39.1 °F 28.7 °F 30.01 in Calm     66% 0.00 in 176 W/m2
11:14 39 °F 28.8 °F 30.01 in SSE 0.9 mph 5 mph 66.4% 0.00 in 181 W/m2
11:19 38.9 °F 28.9 °F 30.01 in SSW 1 mph 5 mph 67% 0.00 in 156 W/m2
11:24 38.9 °F 28.9 °F 30.01 in SSW 0.5 mph 5 mph 67% 0.00 in 146 W/m2
11:29 38.7 °F 28.7 °F 30.00 in SSW 0.8 mph 5 mph 67% 0.00 in 153 W/m2
11:34 38.6 °F 28.6 °F 30.00 in SSW 0.1 mph 5 mph 67% 0.00 in 144 W/m2
11:39 38.6 °F 28.9 °F 29.99 in SSW 0.2 mph 3 mph 67.7% 0.00 in 174 W/m2
11:44 38.7 °F 29.2 °F 29.99 in Calm   3 mph 68.5% 0.00 in 186 W/m2
11:49 38.9 °F 29.6 °F 29.99 in SSW 0.2 mph 3 mph 69% 0.00 in 169 W/m2
11:54 39.1 °F 29.3 °F 29.98 in Calm   3 mph 67.8% 0.00 in 192 W/m2
11:59 39.2 °F 29 °F 29.97 in Calm   3 mph 66.5% 0.00 in 211 W/m2
12:09 39.6 °F 29.2 °F 29.97 in Calm     66% 0.00 in 188 W/m2
12:14 39.8 °F 29 °F 29.96 in Calm   2 mph 65.2% 0.00 in 178 W/m2
12:19 39.8 °F 28.7 °F 29.95 in SSW 0.1 mph 2 mph 64.2% 0.00 in 183 W/m2
12:24 39.6 °F 28.2 °F 29.95 in South 1.6 mph 6 mph 63.4% 0.00 in 181 W/m2
12:29 39.4 °F 28.3 °F 29.95 in South 0.6 mph 6 mph 64% 0.00 in 193 W/m2
12:34 39.4 °F 28.6 °F 29.96 in SSW 1.2 mph 7 mph 65% 0.00 in 178 W/m2
12:39 39.4 °F 28.2 °F 29.96 in SSW 0.3 mph 7 mph 64% 0.00 in 139 W/m2
12:44 39.3 °F 28.2 °F 29.95 in SSW 0.6 mph 7 mph 64% 0.00 in 137 W/m2
12:49 39.2 °F 28.1 °F 29.95 in SSW 2 mph 7 mph 64% 0.00 in 130 W/m2
12:54 39.2 °F 28.3 °F 29.95 in SW 1.5 mph 7 mph 64.7% 0.00 in 132 W/m2
12:59 39.2 °F 28.2 °F 29.95 in SW 0.4 mph 7 mph 64.2% 0.00 in 130 W/m2
13:04 39.3 °F 28.5 °F 29.94 in SW 0.7 mph 7 mph 65% 0.00 in 135 W/m2
13:09 39.3 °F 28.5 °F 29.94 in SW 1 mph 6 mph 64.8% 0.00 in 146 W/m2
13:14 39.3 °F 28.4 °F 29.94 in SW 2.1 mph 6 mph 64.6% 0.00 in 139 W/m2
13:19 39.3 °F 28.5 °F 29.94 in SW 1.5 mph 6 mph 65% 0.00 in 135 W/m2
13:24 39.4 °F 28.6 °F 29.94 in SW 1.3 mph 6 mph 65% 0.00 in 130 W/m2
13:29 39.5 °F 28.5 °F 29.94 in SW 0.7 mph 6 mph 64.3% 0.00 in 113 W/m2
13:34 39.5 °F 28.5 °F 29.94 in SW 1.5 mph 9 mph 64.3% 0.00 in 100 W/m2
13:39 39.5 °F 28.4 °F 29.93 in SW 0.3 mph 9 mph 64% 0.00 in 91 W/m2
13:44 39.5 °F 28.4 °F 29.94 in SW 0.3 mph 9 mph 64% 0.00 in 84 W/m2
13:49 39.5 °F 28.4 °F 29.93 in Calm   9 mph 64% 0.00 in 81 W/m2
13:54 39.5 °F 28.4 °F 29.93 in Calm   9 mph 64% 0.00 in 79 W/m2
13:59 39.5 °F 28.1 °F 29.93 in Calm   9 mph 63.4% 0.00 in 77 W/m2
14:04 39.4 °F 28.2 °F 29.93 in SW 0.1 mph 9 mph 63.8% 0.00 in 72 W/m2
14:09 39.4 °F 28.3 °F 29.93 in SW 0.3 mph 3 mph 64.1% 0.00 in 67 W/m2
14:14 39.3 °F 28.3 °F 29.93 in SW 1.1 mph 5 mph 64.3% 0.00 in 62 W/m2
14:19 39.3 °F 28 °F 29.93 in SW 0.3 mph 5 mph 63.6% 0.00 in 54 W/m2
14:24 39.2 °F 28 °F 29.93 in SW 0.2 mph 5 mph 63.9% 0.00 in 49 W/m2
14:29 39.1 °F 28 °F 29.92 in Calm   5 mph 64% 0.00 in 51 W/m2
14:34 39.1 °F 28.1 °F 29.92 in SW 0.1 mph 5 mph 64.5% 0.00 in 44 W/m2
14:39 39 °F 27.9 °F 29.92 in SW 0.3 mph 3 mph 64% 0.00 in 42 W/m2
14:44 39 °F 27.9 °F 29.92 in SW 0.4 mph 6 mph 64% 0.00 in 40 W/m2
14:49 38.9 °F 28 °F 29.92 in SW 0.2 mph 6 mph 64.5% 0.00 in 39 W/m2
14:54 38.9 °F 28.1 °F 29.93 in Calm   6 mph 64.8% 0.00 in 33 W/m2
14:59 38.9 °F 28.1 °F 29.93 in Calm   6 mph 65% 0.00 in 33 W/m2
15:04 38.9 °F 28.1 °F 29.93 in SW 0.4 mph 6 mph 65% 0.00 in 39 W/m2
15:09 38.8 °F 28.1 °F 29.93 in SW 0.2 mph 3 mph 65% 0.00 in 40 W/m2
15:13 38.8 °F 28.1 °F 29.93 in Calm   3 mph 65% 0.00 in 33 W/m2
15:19 38.8 °F 28.1 °F 29.92 in Calm   3 mph 65% 0.00 in 30 W/m2
15:24 38.8 °F 28.2 °F 29.92 in SW 0.1 mph 3 mph 65.3% 0.00 in 21 W/m2
15:29 38.8 °F 28.3 °F 29.92 in SW 0.4 mph 3 mph 65.7% 0.00 in 21 W/m2
15:34 38.7 °F 28 °F 29.92 in Calm   3 mph 65% 0.00 in 23 W/m2
15:39 38.7 °F 28.1 °F 29.91 in SW 0.7 mph 4 mph 65.4% 0.00 in 25 W/m2
15:44 38.7 °F 28.3 °F 29.92 in SW 0.1 mph 4 mph 66% 0.00 in 26 W/m2
15:49 38.6 °F 28.3 °F 29.92 in Calm   4 mph 66% 0.00 in 32 W/m2
15:54 38.6 °F 28.4 °F 29.92 in Calm   4 mph 66.4% 0.00 in 28 W/m2
15:59 38.6 °F 28.2 °F 29.91 in SW 0.4 mph 4 mph 66% 0.00 in 30 W/m2
16:00 38.6 °F 28.2 °F 29.91 in Calm   4 mph 66% 0.00 in 28 W/m2
16:09 38.6 °F 28.5 °F 29.91 in Calm   2 mph 66.6% 0.00 in 32 W/m2
16:14 38.6 °F 28.6 °F 29.91 in SW 0.1 mph 3 mph 67% 0.00 in 26 W/m2
16:19 38.6 °F 28.6 °F 29.91 in SW 0.3 mph 3 mph 67.1% 0.00 in 19 W/m2
16:24 38.6 °F 29 °F 29.91 in SW 0.1 mph 3 mph 68% 0.00 in 12 W/m2
16:29 38.6 °F 29.2 °F 29.90 in SW 0.6 mph 4 mph 68.7% 0.00 in 9 W/m2
16:34 38.5 °F 29.2 °F 29.90 in SW 0.8 mph 4 mph 69% 0.00 in 7 W/m2
16:39 38.5 °F 29.2 °F 29.90 in SW 0.2 mph 3 mph 69% 0.00 in 5 W/m2
16:44 38.4 °F 29.1 °F 29.91 in SW 0.2 mph 4 mph 69% 0.00 in 0 W/m2
16:49 38.4 °F 29.1 °F 29.91 in SW 0.1 mph 4 mph 69% 0.00 in 0 W/m2
16:54 38.3 °F 29 °F 29.91 in SW 0.1 mph 4 mph 69% 0.00 in 0 W/m2
16:59 38.3 °F 29 °F 29.91 in Calm   4 mph 69% 0.00 in 0 W/m2
17:04 38.3 °F 29 °F 29.91 in Calm   4 mph 69% 0.00 in 0 W/m2
17:09 38.2 °F 28.9 °F 29.91 in Calm     69% 0.00 in 0 W/m2
17:14 38.1 °F 28.9 °F 29.91 in SW 0.1 mph 2 mph 69.2% 0.00 in 0 W/m2
17:19 38.1 °F 28.9 °F 29.91 in SW 0.3 mph 2 mph 69.2% 0.00 in 0 W/m2
17:24 38 °F 28.8 °F 29.90 in Calm   2 mph 69% 0.00 in 0 W/m2
17:29 38 °F 28.8 °F 29.90 in SW 0.2 mph 3 mph 69% 0.00 in 0 W/m2
17:34 38 °F 28.4 °F 29.90 in Calm   3 mph 68.1% 0.00 in 0 W/m2
17:39 37.9 °F 28.3 °F 29.90 in SW 0.2 mph 2 mph 68.1% 0.00 in 0 W/m2
17:44 37.9 °F 28.6 °F 29.90 in Calm   2 mph 68.9% 0.00 in 0 W/m2
17:49 37.9 °F 28.7 °F 29.90 in Calm   2 mph 69% 0.00 in 0 W/m2
17:54 37.9 °F 28.5 °F 29.90 in Calm   2 mph 68.5% 0.00 in 0 W/m2
17:59 37.9 °F 28.3 °F 29.90 in Calm   2 mph 68% 0.00 in 0 W/m2
18:04 37.8 °F 28.2 °F 29.89 in SW 0.1 mph 2 mph 68% 0.00 in 0 W/m2
18:09 37.8 °F 28.2 °F 29.89 in Calm   1 mph 68% 0.00 in 0 W/m2
18:14 37.7 °F 28.1 °F 29.89 in Calm   1 mph 68.1% 0.00 in 0 W/m2
18:19 37.7 °F 28.5 °F 29.89 in Calm   1 mph 69% 0.00 in 0 W/m2
18:24 37.7 °F 28.4 °F 29.89 in Calm   1 mph 69% 0.00 in 0 W/m2
18:29 37.6 °F 28.4 °F 29.89 in Calm   1 mph 69% 0.00 in 0 W/m2
18:34 37.6 °F 28.4 °F 29.89 in Calm   1 mph 69.1% 0.00 in 0 W/m2
18:39 37.5 °F 28.6 °F 29.89 in Calm     70% 0.00 in 0 W/m2
18:44 37.4 °F 28.6 °F 29.90 in Calm     70% 0.00 in 0 W/m2
18:49 37.4 °F 28.5 °F 29.90 in Calm     70% 0.00 in 0 W/m2
18:54 37.3 °F 28.6 °F 29.90 in Calm     70.5% 0.00 in 0 W/m2
18:59 37.3 °F 28.8 °F 29.90 in Calm     71% 0.00 in 0 W/m2
19:04 37.3 °F 28.8 °F 29.90 in Calm   2 mph 71% 0.00 in 0 W/m2
19:09 37.3 °F 28.8 °F 29.90 in Calm   2 mph 71% 0.00 in 0 W/m2
19:14 37.4 °F 28.9 °F 29.90 in Calm   2 mph 71% 0.00 in 0 W/m2
19:19 37.4 °F 28.9 °F 29.90 in Calm   2 mph 71% 0.00 in 0 W/m2
19:24 37.3 °F 28.8 °F 29.90 in Calm   2 mph 71% 0.00 in 0 W/m2
19:29 37.3 °F 28.8 °F 29.90 in Calm   2 mph 71% 0.00 in 0 W/m2
19:34 37.3 °F 28.8 °F 29.89 in Calm   2 mph 71% 0.00 in 0 W/m2
19:39 37.3 °F 28.8 °F 29.89 in Calm     71% 0.00 in 0 W/m2
19:44 37.3 °F 28.8 °F 29.90 in Calm     71% 0.00 in 0 W/m2
19:49 37.3 °F 28.8 °F 29.89 in Calm     71% 0.00 in 0 W/m2
19:54 37.3 °F 28.9 °F 29.89 in Calm   1 mph 71.4% 0.00 in 0 W/m2
19:59 37.3 °F 29.1 °F 29.89 in Calm   1 mph 72% 0.00 in 0 W/m2
20:00 37.2 °F 29 °F 29.89 in Calm   1 mph 72% 0.00 in 0 W/m2
20:09 37.2 °F 29 °F 29.89 in Calm     72% 0.00 in 0 W/m2
20:14 37.1 °F 28.9 °F 29.89 in Calm     72% 0.00 in 0 W/m2
20:19 37 °F 28.9 °F 29.89 in Calm     72% 0.00 in 0 W/m2
20:23 37 °F 29 °F 29.89 in Calm     72.5% 0.00 in 0 W/m2
20:28 36.9 °F 29 °F 29.89 in Calm     73% 0.00 in 0 W/m2
20:30 36.8 °F 29 °F 29.89 in Calm   2 mph 73% 0.00 in 0 W/m2
21:00 36.4 °F 28.9 °F 29.89 in Calm     74% 0.00 in 0 W/m2
21:30 36.3 °F 28.8 °F 29.88 in Calm   2 mph 74% 0.00 in 0 W/m2
22:00 35.8 °F 29 °F 29.87 in Calm     76% 0.00 in 0 W/m2
22:30 35.5 °F 29 °F 29.88 in Calm     77% 0.00 in 0 W/m2
23:04 35.4 °F 28.9 °F 29.88 in Calm     77% 0.00 in 0 W/m2
23:09 35.4 °F 28.9 °F 29.87 in Calm     77% 0.00 in 0 W/m2
23:14 35.3 °F 28.8 °F 29.87 in Calm     77% 0.00 in 0 W/m2
23:19 35.3 °F 28.8 °F 29.87 in Calm     77% 0.00 in 0 W/m2
23:24 35.3 °F 28.8 °F 29.87 in Calm     77% 0.00 in 0 W/m2
23:29 35.3 °F 28.8 °F 29.87 in Calm     77% 0.00 in 0 W/m2
23:34 35.3 °F 28.8 °F 29.87 in Calm     77% 0.00 in 0 W/m2
23:39 35.3 °F 28.8 °F 29.86 in Calm     77% 0.00 in 0 W/m2
23:44 35.3 °F 28.8 °F 29.86 in Calm     77% 0.00 in 0 W/m2
23:49 35.3 °F 28.8 °F 29.86 in Calm     77% 0.00 in 0 W/m2
23:54 35.3 °F 28.8 °F 29.86 in Calm     77% 0.00 in 0 W/m2
23:59 35.3 °F 28.8 °F 29.86 in Calm     77% 0.00 in 0 W/m2
Hartford County Weather
Compliments of Weather Underground - 2 mb